createdAt,value
2022-12-19T00:00:49.592Z,19.00
2022-12-19T00:03:26.724Z,20.10
2022-12-19T00:05:54.939Z,17.30
2022-12-19T00:08:23.001Z,18.10
2022-12-19T00:10:56.815Z,16.70
2022-12-19T00:13:26.233Z,15.30
2022-12-19T00:15:54.943Z,16.80
2022-12-19T00:18:23.075Z,16.10
2022-12-19T00:20:56.673Z,17.70
2022-12-19T00:23:24.787Z,19.20
2022-12-19T00:25:53.197Z,20.20
2022-12-19T00:28:23.048Z,23.40
2022-12-19T00:30:51.748Z,24.20
2022-12-19T00:33:24.599Z,24.50
2022-12-19T00:36:01.440Z,22.40
2022-12-19T00:38:29.928Z,20.80
2022-12-19T00:41:11.536Z,21.50
2022-12-19T00:43:40.154Z,20.10
2022-12-19T00:46:12.162Z,17.20
2022-12-19T00:48:42.862Z,15.80
2022-12-19T00:51:17.117Z,20.50
2022-12-19T00:53:46.636Z,17.70
2022-12-19T00:56:19.376Z,18.60
2022-12-19T00:58:48.354Z,17.20
2022-12-19T01:01:34.427Z,19.10
2022-12-19T01:04:27.679Z,18.60
2022-12-19T01:06:53.082Z,18.50
2022-12-19T01:09:22.805Z,19.70
2022-12-19T01:12:09.681Z,19.80
2022-12-19T01:14:37.726Z,19.70
2022-12-19T01:17:05.873Z,17.80
2022-12-19T01:19:37.758Z,17.20
2022-12-19T01:22:10.461Z,20.60
2022-12-19T01:24:38.496Z,22.50
2022-12-19T01:27:06.560Z,24.00
2022-12-19T01:29:37.630Z,25.50
2022-12-19T01:32:15.741Z,22.90
2022-12-19T01:34:44.291Z,22.50
2022-12-19T01:37:12.347Z,18.20
2022-12-19T01:39:40.409Z,20.50
2022-12-19T01:42:19.588Z,16.60
2022-12-19T01:45:13.434Z,20.40
2022-12-19T01:47:48.681Z,22.30
2022-12-19T01:50:29.792Z,20.10
2022-12-19T01:52:59.641Z,23.40
2022-12-19T01:55:28.511Z,21.30
2022-12-19T01:57:57.330Z,20.30
2022-12-19T02:00:26.608Z,20.60
2022-12-19T02:03:07.720Z,18.20
2022-12-19T02:05:40.258Z,19.10
2022-12-19T02:08:10.893Z,15.50
2022-12-19T02:10:39.359Z,16.50
2022-12-19T02:13:08.981Z,16.50
2022-12-19T02:15:52.819Z,20.40
2022-12-19T02:18:35.251Z,21.30
2022-12-19T02:21:34.014Z,18.50
2022-12-19T02:24:20.818Z,21.80
2022-12-19T02:27:14.194Z,20.00
2022-12-19T02:29:59.880Z,20.70
2022-12-19T02:32:34.705Z,18.20
2022-12-19T02:35:47.108Z,16.50
2022-12-19T02:38:27.691Z,18.70
2022-12-19T02:41:08.571Z,16.70
2022-12-19T02:43:42.373Z,16.50
2022-12-19T02:46:12.239Z,16.60
2022-12-19T02:48:41.999Z,17.10
2022-12-19T02:51:10.165Z,19.30
2022-12-19T02:53:39.562Z,15.20
2022-12-19T02:56:23.051Z,15.70
2022-12-19T02:59:15.852Z,16.50
2022-12-19T03:01:51.593Z,14.00
2022-12-19T03:04:37.934Z,15.80
2022-12-19T03:07:08.992Z,18.90
2022-12-19T03:09:53.405Z,21.00
2022-12-19T03:12:33.653Z,17.50
2022-12-19T03:15:02.971Z,19.10
2022-12-19T03:17:37.092Z,21.50
2022-12-19T03:20:23.629Z,21.40
2022-12-19T03:22:51.890Z,19.20
2022-12-19T03:25:22.614Z,17.50
2022-12-19T03:27:53.861Z,16.70
2022-12-19T03:30:22.340Z,17.90
2022-12-19T03:32:50.479Z,15.60
2022-12-19T03:35:39.057Z,16.40
2022-12-19T03:38:09.388Z,16.70
2022-12-19T03:40:40.137Z,14.20
2022-12-19T03:43:11.550Z,21.10
2022-12-19T03:45:40.086Z,16.60
2022-12-19T03:48:30.727Z,19.90
2022-12-19T03:51:04.705Z,17.70
2022-12-19T03:53:59.218Z,17.90
2022-12-19T03:56:42.667Z,15.10
2022-12-19T03:59:18.806Z,14.00
2022-12-19T04:01:48.437Z,15.30
2022-12-19T04:04:17.336Z,14.30
2022-12-19T04:06:45.932Z,14.30
2022-12-19T04:09:20.706Z,20.60
2022-12-19T04:11:59.708Z,29.10
2022-12-19T04:14:37.267Z,32.40
2022-12-19T04:17:37.437Z,33.70
2022-12-19T04:20:11.211Z,26.20
2022-12-19T04:23:11.887Z,26.00
2022-12-19T04:25:52.604Z,22.40
2022-12-19T04:28:30.730Z,21.60
2022-12-19T04:31:00.024Z,17.30
2022-12-19T04:33:28.206Z,19.00
2022-12-19T04:35:56.309Z,17.50
2022-12-19T04:38:24.384Z,16.00
2022-12-19T04:40:52.418Z,19.30
2022-12-19T04:43:20.482Z,18.90
2022-12-19T04:45:50.636Z,19.30
2022-12-19T04:48:22.193Z,17.40
2022-12-19T04:50:50.206Z,17.90
2022-12-19T04:53:18.399Z,23.80
2022-12-19T04:55:46.489Z,30.30
2022-12-19T04:58:18.910Z,30.20
2022-12-19T05:00:49.642Z,25.90
2022-12-19T05:03:17.779Z,23.10
2022-12-19T05:05:45.833Z,24.70
2022-12-19T05:08:13.892Z,23.30
2022-12-19T05:10:41.952Z,23.40
2022-12-19T05:13:10.346Z,24.40
2022-12-19T05:15:38.403Z,22.40
2022-12-19T05:18:06.538Z,24.80
2022-12-19T05:20:37.153Z,24.30
2022-12-19T05:23:08.095Z,21.30
2022-12-19T05:25:41.433Z,20.60
2022-12-19T05:28:09.482Z,17.80
2022-12-19T05:30:37.577Z,22.10
2022-12-19T05:33:06.984Z,21.10
2022-12-19T05:35:36.287Z,23.30
2022-12-19T05:38:04.759Z,29.10
2022-12-19T05:40:32.764Z,32.80
2022-12-19T05:43:01.029Z,35.40
2022-12-19T05:45:29.086Z,37.70
2022-12-19T05:48:01.168Z,26.80
2022-12-19T05:50:29.600Z,30.80
2022-12-19T05:52:57.608Z,29.90
2022-12-19T05:55:25.630Z,29.20
2022-12-19T05:57:53.761Z,31.90
2022-12-19T06:00:22.285Z,28.40
2022-12-19T06:02:50.392Z,27.30
2022-12-19T06:05:18.826Z,25.20
2022-12-19T06:07:46.858Z,22.90
2022-12-19T06:10:14.961Z,23.70
2022-12-19T06:12:43.028Z,24.40
2022-12-19T06:15:11.549Z,25.80
2022-12-19T06:17:39.615Z,37.50
2022-12-19T06:20:08.193Z,39.40
2022-12-19T06:22:36.247Z,35.40
2022-12-19T06:25:04.676Z,32.90
2022-12-19T06:27:33.608Z,25.20
2022-12-19T06:30:01.608Z,21.60
2022-12-19T06:32:32.377Z,25.70
2022-12-19T06:35:05.120Z,27.20
2022-12-19T06:37:33.372Z,29.10
2022-12-19T06:40:01.430Z,32.30
2022-12-19T06:42:29.448Z,46.20
2022-12-19T06:44:57.568Z,61.30
2022-12-19T06:47:25.767Z,75.10
2022-12-19T06:49:54.013Z,67.50
2022-12-19T06:52:22.531Z,62.50
2022-12-19T06:54:50.623Z,52.70
2022-12-19T06:57:18.652Z,53.90
2022-12-19T06:59:46.737Z,42.90
2022-12-19T07:02:28.637Z,39.60
2022-12-19T07:05:05.729Z,47.20
2022-12-19T07:07:33.824Z,51.70
2022-12-19T07:10:01.857Z,62.10
2022-12-19T07:12:29.978Z,63.40
2022-12-19T07:14:57.986Z,65.20
2022-12-19T07:17:27.065Z,68.30
2022-12-19T07:19:56.852Z,65.40
2022-12-19T07:22:29.413Z,62.60
2022-12-19T07:24:59.031Z,73.00
2022-12-19T07:27:35.185Z,76.90
2022-12-19T07:30:06.425Z,67.40
2022-12-19T07:32:34.600Z,68.50
2022-12-19T07:35:02.845Z,62.80
2022-12-19T07:37:30.909Z,65.00
2022-12-19T07:39:59.017Z,73.90
2022-12-19T07:42:32.264Z,107.80
2022-12-19T07:45:01.650Z,103.40
2022-12-19T07:47:29.816Z,87.80
2022-12-19T07:49:57.856Z,102.90
2022-12-19T07:52:26.369Z,88.80
2022-12-19T07:54:54.488Z,125.10
2022-12-19T07:57:22.648Z,106.30
2022-12-19T07:59:50.731Z,92.30
2022-12-19T08:02:19.145Z,81.90
2022-12-19T08:04:47.400Z,61.20
2022-12-19T08:07:15.485Z,53.90
2022-12-19T08:09:43.572Z,54.80
2022-12-19T08:12:11.626Z,68.20
2022-12-19T08:14:39.713Z,67.50
2022-12-19T08:17:23.478Z,80.80
2022-12-19T08:19:51.675Z,73.30
2022-12-19T08:22:19.912Z,71.40
2022-12-19T08:24:47.986Z,60.80
2022-12-19T08:27:17.174Z,47.50
2022-12-19T08:29:45.327Z,40.70
2022-12-19T08:32:20.532Z,46.40
2022-12-19T08:34:50.250Z,47.40
2022-12-19T08:37:18.452Z,37.90
2022-12-19T08:39:46.504Z,38.30
2022-12-19T08:42:14.563Z,43.00
2022-12-19T08:44:42.649Z,41.90
2022-12-19T08:47:10.742Z,51.40
2022-12-19T08:49:38.966Z,49.10
2022-12-19T08:52:07.039Z,52.60
2022-12-19T08:54:35.143Z,55.10
2022-12-19T08:57:03.497Z,56.60
2022-12-19T08:59:32.387Z,57.40
2022-12-19T09:02:01.406Z,53.40
2022-12-19T09:05:58.579Z,41.80
2022-12-19T09:07:18.245Z,44.10
2022-12-19T09:09:46.489Z,50.60
2022-12-19T09:12:16.256Z,54.50
2022-12-19T09:14:44.582Z,58.00
2022-12-19T09:17:12.834Z,69.70
2022-12-19T09:19:41.945Z,60.80
2022-12-19T09:22:16.892Z,61.20
2022-12-19T09:24:45.795Z,57.50
2022-12-19T09:27:14.621Z,73.50
2022-12-19T09:29:44.062Z,70.70
2022-12-19T09:32:12.621Z,62.30
2022-12-19T09:34:40.868Z,60.00
2022-12-19T09:37:17.206Z,77.30
2022-12-19T09:39:47.043Z,60.60
2022-12-19T09:42:29.025Z,54.10
2022-12-19T09:45:32.464Z,69.60
2022-12-19T09:48:02.105Z,93.70
2022-12-19T09:50:44.711Z,79.90
2022-12-19T09:53:27.925Z,55.80
2022-12-19T09:55:58.580Z,65.40
2022-12-19T09:58:26.560Z,65.50
2022-12-19T10:01:02.108Z,78.20
2022-12-19T10:03:40.455Z,67.20
2022-12-19T10:07:16.109Z,70.50
2022-12-19T10:10:01.011Z,49.90
2022-12-19T10:12:38.462Z,61.30
2022-12-19T10:15:29.279Z,59.70
2022-12-19T10:18:56.751Z,78.90
2022-12-19T10:22:15.626Z,51.70
2022-12-19T10:24:41.559Z,25.70
2022-12-19T10:27:26.712Z,20.70
2022-12-19T10:30:12.942Z,47.00
2022-12-19T10:33:19.323Z,21.80
2022-12-19T10:35:54.645Z,23.70
2022-12-19T10:38:35.009Z,20.70
2022-12-19T10:41:16.680Z,19.50
2022-12-19T10:43:52.332Z,16.30
2022-12-19T10:46:53.323Z,34.70
2022-12-19T10:49:28.389Z,22.60
2022-12-19T10:51:56.368Z,19.30
2022-12-19T10:54:33.453Z,17.90
2022-12-19T10:57:24.660Z,11.40
2022-12-19T10:59:58.651Z,12.60
2022-12-19T11:02:29.639Z,18.10
2022-12-19T11:04:58.107Z,14.40
2022-12-19T11:07:26.424Z,19.40
2022-12-19T11:10:09.197Z,17.40
2022-12-19T11:16:35.598Z,12.30
2022-12-19T11:20:47.668Z,19.70
2022-12-19T11:28:25.608Z,14.90
2022-12-19T11:29:34.397Z,17.90
2022-12-19T11:30:39.550Z,14.80
2022-12-19T11:30:47.823Z,14.70
2022-12-19T11:33:23.911Z,13.60
2022-12-19T11:35:54.750Z,12.20
2022-12-19T11:38:52.967Z,14.50
2022-12-19T11:41:32.826Z,12.20
2022-12-19T11:44:04.335Z,12.70
2022-12-19T11:46:38.297Z,12.80
2022-12-19T11:49:33.287Z,10.20
2022-12-19T11:53:02.843Z,15.20
2022-12-19T11:55:23.872Z,13.70
2022-12-19T11:57:53.443Z,16.80
2022-12-19T12:00:24.675Z,15.00
2022-12-19T12:03:21.669Z,15.80
2022-12-19T12:05:51.879Z,13.10
2022-12-19T12:10:07.712Z,10.70
2022-12-19T12:19:40.617Z,10.90
2022-12-19T12:25:45.321Z,12.70
2022-12-19T12:31:10.913Z,12.60
2022-12-19T12:31:22.342Z,9.70
2022-12-19T12:31:48.873Z,12.90
2022-12-19T12:31:49.893Z,10.50
2022-12-19T12:31:52.225Z,17.10
2022-12-19T12:36:56.116Z,15.00
2022-12-19T12:39:31.635Z,16.60
2022-12-19T12:42:39.104Z,15.30
2022-12-19T12:45:23.059Z,17.50
2022-12-19T12:47:53.597Z,14.20
2022-12-19T12:50:25.438Z,16.70
2022-12-19T12:52:58.252Z,12.60
2022-12-19T12:55:42.059Z,13.00
2022-12-19T12:58:54.084Z,10.60
2022-12-19T13:01:28.916Z,9.40
2022-12-19T13:04:06.578Z,11.70
2022-12-19T13:06:50.313Z,13.70
2022-12-19T13:09:26.379Z,15.20
2022-12-19T13:12:18.961Z,17.40
2022-12-19T13:14:50.490Z,22.30
2022-12-19T13:17:33.686Z,16.50
2022-12-19T13:20:04.549Z,14.80
2022-12-19T13:22:32.573Z,20.70
2022-12-19T13:25:01.230Z,19.80
2022-12-19T13:27:34.510Z,18.70
2022-12-19T13:30:12.694Z,26.80
2022-12-19T13:32:40.747Z,20.30
2022-12-19T13:36:15.490Z,24.00
2022-12-19T13:39:54.015Z,17.60
2022-12-19T13:41:25.231Z,19.20
2022-12-19T13:44:00.010Z,13.00
2022-12-19T13:46:33.207Z,11.00
2022-12-19T13:49:25.163Z,20.30
2022-12-19T13:51:58.226Z,13.30
2022-12-19T13:54:32.200Z,24.60
2022-12-19T13:57:09.337Z,25.30
2022-12-19T13:59:40.448Z,19.10
2022-12-19T14:02:31.994Z,24.50
2022-12-19T14:05:01.584Z,15.00
2022-12-19T14:07:42.436Z,19.80
2022-12-19T14:11:32.061Z,16.00
2022-12-19T14:14:01.509Z,13.20
2022-12-19T14:19:29.084Z,16.70
2022-12-19T14:22:30.548Z,21.60
2022-12-19T14:25:01.487Z,25.60
2022-12-19T14:28:21.292Z,23.40
2022-12-19T14:30:49.275Z,23.80
2022-12-19T14:33:43.820Z,15.90
2022-12-19T14:36:17.445Z,19.00
2022-12-19T14:39:23.794Z,28.30
2022-12-19T14:42:02.118Z,57.60
2022-12-19T14:52:25.481Z,18.30
2022-12-19T14:54:04.473Z,27.90
2022-12-19T14:54:05.064Z,17.80
2022-12-19T14:54:40.478Z,13.90
2022-12-19T14:59:33.382Z,15.20
2022-12-19T15:02:32.520Z,13.80
2022-12-19T15:05:13.318Z,11.70
2022-12-19T15:07:45.209Z,9.50
2022-12-19T15:14:57.184Z,13.40
2022-12-19T15:16:28.203Z,14.00
2022-12-19T15:19:01.501Z,15.40
2022-12-19T15:21:31.385Z,16.90
2022-12-19T15:23:59.391Z,18.10
2022-12-19T15:26:34.158Z,16.50
2022-12-19T15:29:07.372Z,14.00
2022-12-19T15:31:43.756Z,16.70
2022-12-19T15:34:41.662Z,20.00
2022-12-19T15:37:16.390Z,27.60
2022-12-19T15:39:45.008Z,31.90
2022-12-19T15:42:23.128Z,17.20
2022-12-19T15:44:54.042Z,14.10
2022-12-19T15:47:30.115Z,18.20
2022-12-19T15:50:02.781Z,16.30
2022-12-19T15:52:31.002Z,15.10
2022-12-19T15:54:59.055Z,15.30
2022-12-19T15:57:40.197Z,16.80
2022-12-19T16:00:18.697Z,21.40
2022-12-19T16:03:22.506Z,13.90
2022-12-19T16:05:36.068Z,20.10
2022-12-19T16:08:11.912Z,21.00
2022-12-19T16:10:41.488Z,22.50
2022-12-19T16:13:19.757Z,20.00
2022-12-19T16:15:49.003Z,32.80
2022-12-19T16:18:17.409Z,82.40
2022-12-19T16:20:46.858Z,57.10
2022-12-19T16:23:15.786Z,37.30
2022-12-19T16:25:51.994Z,43.40
2022-12-19T16:28:26.960Z,38.20
2022-12-19T16:31:05.891Z,37.20
2022-12-19T16:33:33.936Z,60.40
2022-12-19T16:36:04.649Z,73.00
2022-12-19T16:38:34.819Z,77.50
2022-12-19T16:41:03.237Z,52.00
2022-12-19T16:43:39.054Z,47.40
2022-12-19T16:46:08.874Z,30.70
2022-12-19T16:48:37.417Z,27.20
2022-12-19T16:51:05.527Z,23.20
2022-12-19T16:53:33.553Z,36.90
2022-12-19T16:56:02.314Z,40.80
2022-12-19T16:58:30.471Z,44.10
2022-12-19T17:00:58.598Z,43.70
2022-12-19T17:03:34.674Z,37.50
2022-12-19T17:06:03.736Z,30.40
2022-12-19T17:08:32.589Z,27.00
2022-12-19T17:11:00.665Z,25.80
2022-12-19T17:13:28.790Z,25.80
2022-12-19T17:16:04.793Z,24.20
2022-12-19T17:18:39.311Z,20.70
2022-12-19T17:21:10.843Z,26.30
2022-12-19T17:23:39.596Z,26.70
2022-12-19T17:26:11.409Z,25.70
2022-12-19T17:28:43.115Z,21.10
2022-12-19T17:31:20.908Z,27.50
2022-12-19T17:33:49.962Z,37.20
2022-12-19T17:36:23.060Z,30.40
2022-12-19T17:38:52.675Z,24.80
2022-12-19T17:41:20.733Z,30.10
2022-12-19T17:43:48.837Z,33.20
2022-12-19T17:46:19.597Z,28.50
2022-12-19T17:48:51.354Z,23.30
2022-12-19T17:51:21.486Z,21.00
2022-12-19T17:53:50.196Z,22.90
2022-12-19T17:56:20.899Z,21.40
2022-12-19T17:58:49.569Z,19.80
2022-12-19T18:01:22.144Z,21.40
2022-12-19T18:03:53.543Z,23.40
2022-12-19T18:06:21.881Z,38.00
2022-12-19T18:08:50.097Z,52.10
2022-12-19T18:11:21.356Z,45.80
2022-12-19T18:13:50.545Z,87.00
2022-12-19T18:16:22.857Z,125.20
2022-12-19T18:18:51.015Z,104.20
2022-12-19T18:21:21.003Z,76.30
2022-12-19T18:23:49.218Z,27.10
2022-12-19T18:26:17.295Z,21.50
2022-12-19T18:28:45.519Z,18.20
2022-12-19T18:31:26.367Z,25.40
2022-12-19T18:33:55.635Z,21.90
2022-12-19T18:36:29.503Z,19.00
2022-12-19T18:38:57.625Z,19.70
2022-12-19T18:41:26.422Z,24.30
2022-12-19T18:43:54.478Z,20.60
2022-12-19T18:46:28.203Z,34.20
2022-12-19T18:48:56.530Z,31.50
2022-12-19T18:51:26.061Z,70.10
2022-12-19T18:53:54.473Z,70.40
2022-12-19T18:56:22.627Z,52.90
2022-12-19T18:58:50.780Z,74.50
2022-12-19T19:01:21.881Z,96.60
2022-12-19T19:03:59.743Z,107.10
2022-12-19T19:06:33.090Z,96.80
2022-12-19T19:09:16.279Z,90.80
2022-12-19T19:11:53.921Z,60.80
2022-12-19T19:14:22.085Z,51.10
2022-12-19T19:16:50.257Z,42.00
2022-12-19T19:19:19.000Z,41.90
2022-12-19T19:21:47.428Z,33.30
2022-12-19T19:24:19.052Z,28.60
2022-12-19T19:29:15.380Z,25.40
2022-12-19T19:31:48.294Z,24.20
2022-12-19T19:34:29.875Z,20.70
2022-12-19T19:37:01.334Z,24.10
2022-12-19T19:39:33.077Z,19.60
2022-12-19T19:44:30.282Z,17.40
2022-12-19T19:46:58.449Z,13.50
2022-12-19T19:49:26.638Z,14.60
2022-12-19T19:52:00.577Z,16.30
2022-12-19T19:54:31.826Z,18.20
2022-12-19T19:56:59.873Z,25.90
2022-12-19T19:59:31.480Z,17.30
2022-12-19T20:01:59.921Z,25.30
2022-12-19T20:04:28.241Z,24.80
2022-12-19T20:06:56.464Z,24.10
2022-12-19T20:09:24.508Z,26.20
2022-12-19T20:11:52.643Z,29.10
2022-12-19T20:14:20.917Z,28.60
2022-12-19T20:16:49.999Z,21.40
2022-12-19T20:19:18.599Z,15.70
2022-12-19T20:21:46.687Z,22.50
2022-12-19T20:24:14.785Z,21.70
2022-12-19T20:26:43.088Z,18.40
2022-12-19T20:29:11.678Z,14.80
2022-12-19T20:31:40.444Z,12.70
2022-12-19T20:34:08.612Z,19.90
2022-12-19T20:36:37.030Z,31.60
2022-12-19T20:39:05.631Z,51.90
2022-12-19T20:41:33.875Z,32.70
2022-12-19T20:44:02.125Z,21.50
2022-12-19T20:46:30.280Z,16.60
2022-12-19T20:48:58.724Z,13.70
2022-12-19T20:51:26.823Z,13.60
2022-12-19T20:53:54.932Z,10.90
2022-12-19T20:56:26.143Z,11.00
2022-12-19T20:58:54.599Z,9.20
2022-12-19T21:01:25.169Z,17.10
2022-12-19T21:03:53.708Z,12.90
2022-12-19T21:06:26.275Z,12.30
2022-12-19T21:08:55.797Z,10.80
2022-12-19T21:11:26.450Z,9.90
2022-12-19T21:13:54.761Z,13.10
2022-12-19T21:16:24.802Z,12.00
2022-12-19T21:18:53.230Z,10.70
2022-12-19T21:21:24.530Z,11.00
2022-12-19T21:23:53.850Z,8.80
2022-12-19T21:26:23.868Z,8.90
2022-12-19T21:28:53.154Z,9.80
2022-12-19T21:31:27.532Z,10.00
2022-12-19T21:34:00.841Z,9.60
2022-12-19T21:36:30.356Z,10.00
2022-12-19T21:39:00.272Z,9.10
2022-12-19T21:41:28.524Z,10.80
2022-12-19T21:43:57.494Z,9.30
2022-12-19T21:46:28.685Z,11.50
2022-12-19T21:48:57.642Z,9.90
2022-12-19T21:51:28.217Z,10.60
2022-12-19T21:54:00.688Z,9.60
2022-12-19T21:56:34.388Z,8.20
2022-12-19T21:59:05.345Z,7.60
2022-12-19T22:01:33.863Z,7.90
2022-12-19T22:04:06.610Z,8.20
2022-12-19T22:06:37.313Z,10.10
2022-12-19T22:09:08.728Z,11.50
2022-12-19T22:11:37.225Z,9.70
2022-12-19T22:14:05.978Z,9.10
2022-12-19T22:16:35.503Z,10.20
2022-12-19T22:19:04.688Z,13.20
2022-12-19T22:21:33.785Z,14.20
2022-12-19T22:24:03.485Z,9.80
2022-12-19T22:26:32.402Z,10.20
2022-12-19T22:29:00.497Z,10.00
2022-12-19T22:31:33.527Z,9.50
2022-12-19T22:34:07.743Z,9.60
2022-12-19T22:36:37.468Z,9.00
2022-12-19T22:39:08.240Z,8.60
2022-12-19T22:41:38.088Z,9.30
2022-12-19T22:44:06.860Z,8.00
2022-12-19T22:46:37.287Z,8.60
2022-12-19T22:49:08.120Z,8.20
2022-12-19T22:51:37.183Z,8.80
2022-12-19T22:54:05.933Z,7.60
2022-12-19T22:56:35.413Z,6.70
2022-12-19T22:59:06.668Z,9.90
2022-12-19T23:01:40.564Z,9.40
2022-12-19T23:04:12.785Z,9.30
2022-12-19T23:06:41.831Z,7.60
2022-12-19T23:09:13.740Z,6.60
2022-12-19T23:11:43.693Z,8.40
2022-12-19T23:14:15.257Z,8.20
2022-12-19T23:16:43.870Z,8.50
2022-12-19T23:19:12.413Z,7.30
2022-12-19T23:21:40.431Z,8.10
2022-12-19T23:24:08.627Z,8.30
2022-12-19T23:26:38.435Z,9.10
2022-12-19T23:29:12.662Z,8.30
2022-12-19T23:31:45.766Z,7.60
2022-12-19T23:34:16.003Z,7.00
2022-12-19T23:37:10.211Z,7.30
2022-12-19T23:39:33.650Z,6.50
2022-12-19T23:42:01.705Z,7.40
2022-12-19T23:44:30.032Z,5.40
2022-12-19T23:47:03.068Z,6.90
2022-12-19T23:49:33.615Z,8.70
2022-12-19T23:52:01.909Z,7.90
2022-12-19T23:54:30.318Z,8.10
2022-12-19T23:56:58.405Z,8.70
2022-12-19T23:59:26.621Z,9.10
